Mumbai, India

3:44 AM IST on August 04, 2015 (GMT +0530)
Chhatrapati Shivaji International | | Change Station
CLOSE
Current Station
Airport
Location: Mumbai,
Elevation: 46 ft
Nearby Weather Stations

Elev 46 ft 19.10 °N, 72.86 °E | Updated 34 minutes ago

Haze
Haze
82 °F
Feels Like 91 °F
N
13
Wind Variable Wind from West

Today
High -- | Low -- °F
--% Chance of Precip.
Yesterday
High -- | Low -- °F
Precip. -- in
6:16 AM 7:13 PM
Waning Gibbous, 83% visible
Pressure 29.74 in
Visibility 2.5 miles
Clouds Few 1800 ft
Scattered Clouds 2500 ft
Heat Index 91 °F
Dew Point 77 °F
Humidity 84%
Rainfall 0.00 in
Snow Depth Not available.
UV 0 out of 12
Pollen Not available.
Air Quality Not available.
Flu Activity Not available.
METAR VABB 032140Z 26011KT 4000 HZ FEW018 SCT025 28/25 Q1007 NOSIG

More Conditions Fewer Conditions

Pressure 29.74 in
Visibility 2.5 miles
Clouds Few 1800 ft
Scattered Clouds 2500 ft
Heat Index 91 °F
Dew Point 77 °F
Humidity 84%
Rainfall 0.00 in
Snow Depth Not available.
UV 0 out of 12
Pollen Not available.
Air Quality Not available.
Flu Activity Not available.
METAR VABB 032140Z 26011KT 4000 HZ FEW018 SCT025 28/25 Q1007 NOSIG

More Conditions Fewer Conditions

10-Day Weather Forecast

×

Almanac

Astronomy

Aug. 04, 2015 Rise Set
Actual Time
Civil Twilight
Nautical Twilight
Astronomical Twilight
Moon
Length of Visible Light
Length of Day
Tomorrow will be .
, % of the Moon is Illuminated

Today's Extremes

Country Highs Country Lows

Community

WunderPhotos

Upload Photos

1,843,782 photos uploaded!

WunderBlogs® & News

Nearby

Air Quality

  Air Quality AQ Index Pollutant
Not available.

Snow Depth

Station Depth Elevation

Earthquake Activity

City Distance Mag. Time & Date
Minimum magnitude displayed is 2.5.

Coastal Water Temperatures

Place Temperature

Stations

Nearby Weather Stations

Station Location Temp. Windchill Dew Point Humidity Wind Precip. Elev Updated Type